Time;durP1;ratioP1;P1;durP2;ratioP2;P2;SDS_P1;SDS_P2;PMS_P1;PMS_P2;Temp;Humidity;BMP_temperature;BMP_pressure;BME280_temperature;BME280_humidity;BME280_pressure;Samples;Min_cycle;Max_cycle;Signal;HPM_P1;HPM_P2
2022/09/11 00:01:06;;;;;;;4.77;1.90;;;;;;;14.73;100.00;155143.09;5013866;28;20451;-76
2022/09/11 00:03:34;;;;;;;1.83;1.60;;;;;;;14.74;100.00;155145.69;5013513;28;20805;-76
2022/09/11 00:06:02;;;;;;;2.33;1.70;;;;;;;14.70;100.00;155136.59;5013719;28;20442;-76
2022/09/11 00:08:30;;;;;;;2.53;1.50;;;;;;;14.66;100.00;155126.22;5030564;28;20482;-76
2022/09/11 00:11:03;;;;;;;2.43;1.40;;;;;;;14.70;100.00;155135.28;5014588;28;20463;-76
2022/09/11 00:13:30;;;;;;;2.27;1.60;;;;;;;14.68;100.00;155131.41;5012917;28;20938;-76
2022/09/11 00:15:58;;;;;;;2.07;1.33;;;;;;;14.68;100.00;155130.09;5017046;28;20449;-76
2022/09/11 00:18:28;;;;;;;1.60;1.40;;;;;;;14.69;100.00;155134.03;5012725;28;20438;-76
2022/09/11 00:20:56;;;;;;;4.17;1.83;;;;;;;14.65;100.00;155123.59;5013119;28;20451;-76
2022/09/11 00:23:25;;;;;;;2.63;1.40;;;;;;;14.63;100.00;155119.72;5014185;28;20531;-76
2022/09/11 00:25:52;;;;;;;2.53;1.80;;;;;;;14.61;100.00;155114.50;5049297;28;20828;-76
2022/09/11 00:28:21;;;;;;;2.57;1.33;;;;;;;14.63;100.00;155119.72;5017072;28;20439;-76
2022/09/11 00:30:48;;;;;;;2.20;1.30;;;;;;;14.67;100.00;155127.53;5016540;28;20490;-76
2022/09/11 00:33:16;;;;;;;2.10;1.40;;;;;;;14.77;100.00;155153.50;5032319;28;20439;-76
2022/09/11 00:35:44;;;;;;;1.93;1.57;;;;;;;14.74;100.00;155147.00;5031194;28;20474;-76
2022/09/11 00:38:10;;;;;;;2.00;1.53;;;;;;;14.70;100.00;155136.59;5037514;28;20529;-76
2022/09/11 00:40:45;;;;;;;1.80;1.43;;;;;;;14.69;100.00;155134.03;5020610;28;20455;-76
2022/09/11 00:43:13;;;;;;;2.13;1.40;;;;;;;14.69;100.00;155132.72;5019979;28;20932;-76
2022/09/11 00:45:40;;;;;;;2.20;1.30;;;;;;;14.68;100.00;155130.09;5011658;28;20547;-76
2022/09/11 00:48:08;;;;;;;2.10;1.90;;;;;;;14.70;100.00;155135.28;5017392;28;20541;-76
2022/09/11 00:50:36;;;;;;;1.60;1.40;;;;;;;14.71;100.00;155139.22;5016432;28;20479;-76
2022/09/11 00:53:06;;;;;;;2.03;1.83;;;;;;;14.72;100.00;155140.50;5034447;28;20442;-76
2022/09/11 00:55:36;;;;;;;2.50;1.47;;;;;;;14.67;100.00;155127.53;5013189;28;20567;-76
2022/09/11 00:58:05;;;;;;;5.73;1.77;;;;;;;14.68;100.00;155131.41;4996804;28;20441;-76
2022/09/11 01:00:32;;;;;;;1.70;1.53;;;;;;;14.68;100.00;155130.09;4981087;28;20507;-76
2022/09/11 01:02:58;;;;;;;2.87;1.40;;;;;;;14.68;100.00;155131.41;5013983;28;20542;-76
2022/09/11 01:05:28;;;;;;;1.70;1.40;;;;;;;14.69;100.00;155132.72;5000405;28;20527;-76
2022/09/11 01:07:56;;;;;;;1.80;1.60;;;;;;;14.69;100.00;155134.03;5000289;28;20444;-76
2022/09/11 01:10:28;;;;;;;2.00;1.60;;;;;;;14.70;100.00;155136.59;4996527;28;20439;-76
2022/09/11 01:13:01;;;;;;;1.77;1.40;;;;;;;14.70;100.00;155136.59;5011146;28;20442;-76
2022/09/11 01:15:32;;;;;;;2.60;1.57;;;;;;;14.71;100.00;155137.91;5019979;28;20475;-76
2022/09/11 01:18:04;;;;;;;2.67;1.70;;;;;;;14.68;100.00;155130.09;5036677;28;20439;-76
2022/09/11 01:20:42;;;;;;;2.80;1.40;;;;;;;14.65;100.00;155123.59;5022814;28;20550;-76
2022/09/11 01:23:36;;;;;;;2.63;1.80;;;;;;;14.66;100.00;155126.22;5014587;28;20451;-76
2022/09/11 01:26:17;;;;;;;2.77;1.33;;;;;;;14.67;100.00;155128.78;4995815;28;20518;-76
2022/09/11 01:28:51;;;;;;;3.10;1.80;;;;;;;14.68;100.00;155130.09;4980980;28;20492;-76
2022/09/11 01:31:22;;;;;;;3.27;2.10;;;;;;;14.67;100.00;155127.53;5005906;28;20420;-76
2022/09/11 01:33:57;;;;;;;2.57;1.70;;;;;;;14.67;100.00;155127.53;4996033;28;20556;-76
2022/09/11 01:36:27;;;;;;;1.80;1.60;;;;;;;14.70;100.00;155136.59;5014976;28;20922;-76
2022/09/11 01:38:57;;;;;;;2.20;1.73;;;;;;;14.69;100.00;155132.72;4999778;28;20446;-76
2022/09/11 01:41:27;;;;;;;3.20;2.00;;;;;;;14.68;100.00;155130.09;5016026;28;20534;-76
2022/09/11 01:44:01;;;;;;;1.90;1.70;;;;;;;14.72;100.00;155140.50;4999005;28;20595;-76
2022/09/11 01:46:28;;;;;;;2.67;1.63;;;;;;;14.66;100.00;155126.22;5033646;28;20420;-76
2022/09/11 01:49:01;;;;;;;2.00;1.70;;;;;;;14.66;100.00;155124.91;5049107;28;20840;-76
2022/09/11 01:51:31;;;;;;;2.33;1.57;;;;;;;14.63;100.00;155119.72;4999957;28;20447;-76
2022/09/11 01:53:59;;;;;;;2.37;1.60;;;;;;;14.64;100.00;155122.28;5015611;28;20459;-76
2022/09/11 01:56:30;;;;;;;1.83;1.63;;;;;;;14.55;100.00;155098.94;4999672;28;20448;-76
2022/09/11 01:59:02;;;;;;;3.47;1.73;;;;;;;14.54;100.00;155095.03;5032561;28;20522;-76
2022/09/11 02:01:32;;;;;;;2.33;1.73;;;;;;;14.51;100.00;155087.22;4995469;28;20468;-76
2022/09/11 02:04:06;;;;;;;1.87;1.70;;;;;;;14.47;100.00;155078.16;4993510;28;20828;-76
2022/09/11 02:06:38;;;;;;;1.93;1.70;;;;;;;14.49;100.00;155083.34;5015375;28;20427;-76
2022/09/11 02:09:07;;;;;;;3.20;1.80;;;;;;;14.50;100.00;155084.66;5001005;28;20491;-76
2022/09/11 02:11:37;;;;;;;2.00;1.80;;;;;;;14.51;100.00;155088.53;5040387;28;20432;-76
2022/09/11 02:14:10;;;;;;;2.40;2.20;;;;;;;14.49;100.00;155082.03;4999003;28;20530;-76
2022/09/11 02:16:44;;;;;;;2.10;1.80;;;;;;;14.54;100.00;155095.03;4998940;28;21009;-76
2022/09/11 02:19:12;;;;;;;2.20;1.77;;;;;;;14.53;100.00;155092.47;4999179;28;20479;-76
2022/09/11 02:21:39;;;;;;;3.97;2.17;;;;;;;14.50;100.00;155085.97;5025037;28;20446;-76
2022/09/11 02:24:09;;;;;;;2.80;2.13;;;;;;;14.52;100.00;155091.16;5014443;28;20436;-76
2022/09/11 02:26:39;;;;;;;3.80;2.00;;;;;;;14.51;100.00;155088.53;5015035;28;20455;-76
2022/09/11 02:29:09;;;;;;;2.53;2.00;;;;;;;14.50;100.00;155084.66;5007676;28;20550;-76
2022/09/11 02:31:36;;;;;;;3.10;1.87;;;;;;;14.49;100.00;155083.34;5017834;28;20435;-76
2022/09/11 02:34:03;;;;;;;4.93;1.90;;;;;;;14.49;100.00;155083.34;5051780;28;20447;-76
2022/09/11 02:36:40;;;;;;;2.50;1.67;;;;;;;14.50;100.00;155085.97;5034429;28;20981;-76
2022/09/11 02:39:21;;;;;;;2.40;2.20;;;;;;;14.49;100.00;155083.34;5016884;28;20937;-77
2022/09/11 02:41:58;;;;;;;2.43;1.70;;;;;;;14.53;100.00;155093.72;5034584;28;20435;-76
2022/09/11 02:44:32;;;;;;;2.10;1.80;;;;;;;14.52;100.00;155089.84;5014835;28;20455;-76
2022/09/11 02:47:10;;;;;;;2.70;2.47;;;;;;;14.49;100.00;155083.34;5014084;28;20528;-76
2022/09/11 02:49:46;;;;;;;3.40;2.20;;;;;;;14.52;100.00;155091.16;4994557;28;20494;-75
2022/09/11 02:52:20;;;;;;;4.00;2.20;;;;;;;14.53;100.00;155092.47;4995297;28;20536;-76
2022/09/11 02:54:53;;;;;;;2.60;2.03;;;;;;;14.55;100.00;155098.94;4995300;28;20508;-76
2022/09/11 02:57:25;;;;;;;2.80;2.50;;;;;;;14.55;100.00;155098.94;4979090;28;20440;-76
2022/09/11 02:59:56;;;;;;;2.70;2.30;;;;;;;14.54;100.00;155095.03;4995789;28;20456;-76
2022/09/11 03:02:24;;;;;;;3.57;2.27;;;;;;;14.57;100.00;155104.13;5005663;28;20852;-76
2022/09/11 03:04:51;;;;;;;2.40;2.20;;;;;;;14.57;100.00;155104.13;4997465;28;20448;-76
2022/09/11 03:07:18;;;;;;;2.40;2.20;;;;;;;14.55;100.00;155098.94;5005930;28;20431;-76
2022/09/11 03:09:44;;;;;;;2.73;2.43;;;;;;;14.55;100.00;155097.63;5033963;28;20455;-76
2022/09/11 03:12:18;;;;;;;2.47;2.23;;;;;;;14.56;100.00;155101.50;5017634;28;20458;-76
2022/09/11 03:14:48;;;;;;;2.40;2.20;;;;;;;14.57;100.00;155104.13;5017385;28;20479;-76
2022/09/11 03:17:16;;;;;;;2.83;2.53;;;;;;;14.61;100.00;155113.25;5011579;28;20827;-76
2022/09/11 03:19:43;;;;;;;2.50;2.17;;;;;;;14.59;100.00;155108.00;4994410;28;20825;-76
2022/09/11 03:22:10;;;;;;;3.60;2.60;;;;;;;14.56;100.00;155101.50;5002892;28;20486;-76
2022/09/11 03:24:38;;;;;;;2.80;2.60;;;;;;;14.57;100.00;155104.13;5012375;28;20978;-76
2022/09/11 03:27:05;;;;;;;3.80;2.90;;;;;;;14.54;100.00;155095.03;5010134;28;20488;-76
2022/09/11 03:29:34;;;;;;;2.80;2.40;;;;;;;14.55;100.00;155097.63;5034453;28;20453;-76
2022/09/11 03:32:01;;;;;;;3.03;2.73;;;;;;;14.53;100.00;155093.72;5013968;28;20451;-76
2022/09/11 03:34:30;;;;;;;4.83;2.70;;;;;;;14.54;100.00;155096.31;5012876;28;20491;-76
2022/09/11 03:36:57;;;;;;;3.23;2.57;;;;;;;14.54;100.00;155095.03;5013067;28;20467;-76
2022/09/11 03:39:24;;;;;;;4.63;2.27;;;;;;;14.50;100.00;155085.97;5027046;28;20460;-76
2022/09/11 03:41:53;;;;;;;3.90;2.40;;;;;;;14.51;100.00;155088.53;5005415;28;20797;-76
2022/09/11 03:44:20;;;;;;;2.40;2.20;;;;;;;14.49;100.00;155082.03;4997320;28;20440;-76
2022/09/11 03:46:47;;;;;;;2.50;2.30;;;;;;;14.46;100.00;155075.53;5013884;28;20432;-76
2022/09/11 03:49:14;;;;;;;3.03;2.70;;;;;;;14.46;100.00;155075.53;5013243;28;20547;-76
2022/09/11 03:51:43;;;;;;;3.27;2.97;;;;;;;14.49;100.00;155083.34;5013867;28;21014;-76
2022/09/11 03:54:10;;;;;;;2.70;2.23;;;;;;;14.47;100.00;155076.84;5045624;28;20459;-76
2022/09/11 03:56:37;;;;;;;3.43;2.77;;;;;;;14.47;100.00;155076.84;5027442;28;20474;-76
2022/09/11 03:59:03;;;;;;;2.90;2.60;;;;;;;14.46;100.00;155074.25;5013051;28;20822;-76
2022/09/11 04:01:30;;;;;;;3.47;3.10;;;;;;;14.45;100.00;155071.69;5015057;28;20498;-76
2022/09/11 04:03:57;;;;;;;3.73;2.80;;;;;;;14.46;100.00;155074.25;5046402;28;20452;-76
2022/09/11 04:06:31;;;;;;;3.93;3.20;;;;;;;14.46;100.00;155075.53;4997416;28;20446;-76
2022/09/11 04:09:00;;;;;;;4.20;3.13;;;;;;;14.44;100.00;155070.38;4997363;28;20539;-76
2022/09/11 04:11:26;;;;;;;3.80;3.37;;;;;;;14.44;100.00;155069.06;5013917;28;20601;-76
2022/09/11 04:13:55;;;;;;;4.00;3.60;;;;;;;14.45;100.00;155071.69;5013188;28;20448;-76
2022/09/11 04:16:25;;;;;;;6.00;3.17;;;;;;;14.45;100.00;155071.69;5029867;28;20471;-76
2022/09/11 04:18:54;;;;;;;3.37;2.97;;;;;;;14.45;100.00;155071.69;4997419;28;20501;-76
2022/09/11 04:21:23;;;;;;;4.43;3.90;;;;;;;14.44;100.00;155070.38;4997264;28;20436;-76
2022/09/11 04:23:52;;;;;;;4.97;3.80;;;;;;;14.47;100.00;155078.16;5002595;28;20454;-76
2022/09/11 04:26:22;;;;;;;4.30;3.83;;;;;;;14.48;100.00;155080.72;5029292;28;20977;-76
2022/09/11 04:28:52;;;;;;;4.03;3.63;;;;;;;14.46;100.00;155075.53;5012916;28;20985;-76
2022/09/11 04:31:20;;;;;;;5.30;4.00;;;;;;;14.47;100.00;155078.16;4996957;28;20486;-76
2022/09/11 04:33:47;;;;;;;3.90;3.60;;;;;;;14.48;100.00;155079.47;5012040;28;20444;-76
2022/09/11 04:36:16;;;;;;;4.50;4.10;;;;;;;14.51;100.00;155087.22;4996984;28;20478;-76
2022/09/11 04:38:43;;;;;;;5.40;4.87;;;;;;;14.56;100.00;155101.50;5046049;28;20456;-76
2022/09/11 04:41:12;;;;;;;4.60;4.03;;;;;;;14.53;100.00;155093.72;5029934;28;20914;-77
2022/09/11 04:43:41;;;;;;;5.20;4.70;;;;;;;14.54;100.00;155095.03;4996325;28;20454;-76
2022/09/11 04:46:12;;;;;;;5.60;5.10;;;;;;;14.56;100.00;155100.25;5002182;28;20439;-76
2022/09/11 04:48:55;;;;;;;5.30;4.80;;;;;;;14.55;100.00;155097.63;5033078;28;20742;-76
2022/09/11 04:51:26;;;;;;;5.93;4.63;;;;;;;14.56;100.00;155100.25;5015930;28;20455;-76
2022/09/11 04:53:56;;;;;;;6.03;5.37;;;;;;;14.58;100.00;155106.75;5015248;28;20965;-76
2022/09/11 04:56:24;;;;;;;6.33;5.73;;;;;;;14.60;100.00;155111.94;5015162;28;20502;-76
2022/09/11 04:58:57;;;;;;;6.00;5.40;;;;;;;14.62;100.00;155115.81;5009500;28;20463;-76
2022/09/11 05:01:26;;;;;;;7.70;6.43;;;;;;;14.68;100.00;155130.09;4995744;28;20510;-76
2022/09/11 05:03:56;;;;;;;6.20;5.57;;;;;;;14.66;100.00;155124.91;4994519;28;20462;-76
2022/09/11 05:06:23;;;;;;;6.50;5.80;;;;;;;14.67;100.00;155127.53;5024266;28;20549;-76
2022/09/11 05:08:50;;;;;;;6.53;5.93;;;;;;;14.70;100.00;155135.28;5015913;28;20805;-76
2022/09/11 05:11:19;;;;;;;6.60;5.17;;;;;;;14.69;100.00;155132.72;5035701;28;20481;-76
2022/09/11 05:13:46;;;;;;;6.53;5.93;;;;;;;14.72;100.00;155140.50;5018957;28;20474;-76
2022/09/11 05:16:17;;;;;;;5.97;5.20;;;;;;;14.73;100.00;155143.09;5025684;28;20875;-76
2022/09/11 05:18:49;;;;;;;6.33;5.73;;;;;;;14.75;100.00;155148.25;5000035;28;20447;-76
2022/09/11 05:21:16;;;;;;;5.70;5.20;;;;;;;14.75;100.00;155149.56;5000439;28;20455;-76
2022/09/11 05:23:48;;;;;;;6.57;5.97;;;;;;;14.74;100.00;155147.00;5015751;28;20440;-76
2022/09/11 05:26:15;;;;;;;5.67;5.17;;;;;;;14.76;100.00;155150.88;4994946;28;20468;-76
2022/09/11 05:28:42;;;;;;;7.50;6.10;;;;;;;14.77;100.00;155153.50;5012059;28;20433;-76
2022/09/11 05:31:11;;;;;;;6.37;5.67;;;;;;;14.74;100.00;155147.00;4994030;28;20958;-76
2022/09/11 05:33:39;;;;;;;6.60;6.00;;;;;;;14.74;100.00;155145.69;4989699;28;20539;-76
2022/09/11 05:36:07;;;;;;;7.97;6.43;;;;;;;14.77;100.00;155154.81;5010469;28;20475;-76
2022/09/11 05:38:35;;;;;;;6.60;5.90;;;;;;;14.81;100.00;155163.88;5015005;28;20444;-76
2022/09/11 05:41:02;;;;;;;6.87;6.27;;;;;;;14.80;100.00;155162.56;5000047;28;20451;-76
2022/09/11 05:43:30;;;;;;;8.83;6.50;;;;;;;14.81;100.00;155163.88;5033574;28;20437;-76
2022/09/11 05:45:58;;;;;;;6.03;5.50;;;;;;;14.83;100.00;155169.06;5033413;28;20520;-76
2022/09/11 05:48:28;;;;;;;6.20;5.70;;;;;;;14.84;100.00;155171.66;5018345;28;20450;-76
2022/09/11 05:51:00;;;;;;;7.20;5.10;;;;;;;14.84;100.00;155171.66;5034690;28;20450;-76
2022/09/11 05:53:28;;;;;;;7.40;5.70;;;;;;;14.85;100.00;155175.53;5029924;28;20440;-76
2022/09/11 05:55:56;;;;;;;6.67;5.63;;;;;;;14.88;100.00;155183.34;5014137;28;20586;-76
2022/09/11 05:58:23;;;;;;;7.53;5.57;;;;;;;14.90;100.00;155187.28;4998625;28;20439;-76
2022/09/11 06:00:50;;;;;;;6.57;5.97;;;;;;;14.93;100.00;155196.34;5001997;28;20582;-76
2022/09/11 06:03:18;;;;;;;8.10;6.40;;;;;;;14.93;100.00;155196.34;5013478;28;20838;-76
2022/09/11 06:05:45;;;;;;;9.67;6.53;;;;;;;14.97;100.00;155205.44;5030136;28;20446;-76
2022/09/11 06:08:13;;;;;;;7.13;6.50;;;;;;;14.96;100.00;155202.81;4998164;28;20498;-76
2022/09/11 06:10:45;;;;;;;6.90;6.30;;;;;;;14.96;100.00;155204.13;5014650;28;20436;-76
2022/09/11 06:13:14;;;;;;;7.20;6.57;;;;;;;14.99;100.00;155211.94;5014573;28;20446;-76
2022/09/11 06:15:44;;;;;;;7.43;6.73;;;;;;;15.00;100.00;155213.25;5015461;28;20459;-76
2022/09/11 06:18:11;;;;;;;7.30;6.60;;;;;;;15.00;100.00;155213.25;5015523;28;20448;-76
2022/09/11 06:20:37;;;;;;;9.50;7.10;;;;;;;15.00;100.00;155213.25;5006577;28;20443;-76
2022/09/11 06:23:06;;;;;;;7.57;6.80;;;;;;;15.04;100.00;155224.94;5035080;28;20454;-76
2022/09/11 06:25:35;;;;;;;8.00;7.20;;;;;;;15.08;100.00;155234.03;5013957;28;20471;-76
2022/09/11 06:28:03;;;;;;;7.87;7.10;;;;;;;15.08;100.00;155234.03;5031181;28;20447;-76
2022/09/11 06:30:30;;;;;;;6.60;6.00;;;;;;;15.09;100.00;155236.66;4998041;28;20530;-76
2022/09/11 06:32:57;;;;;;;7.17;6.47;;;;;;;15.14;100.00;155249.66;5000826;28;20470;-76
2022/09/11 06:35:24;;;;;;;7.10;6.40;;;;;;;15.14;100.00;155249.66;4998813;28;20478;-76
2022/09/11 06:37:50;;;;;;;8.10;7.30;;;;;;;15.16;100.00;155254.81;5014941;28;20567;-76
2022/09/11 06:40:17;;;;;;;7.47;6.80;;;;;;;15.16;100.00;155254.81;5033013;28;20483;-76
2022/09/11 06:42:46;;;;;;;7.57;6.90;;;;;;;15.19;100.00;155263.94;4995252;28;20448;-76
2022/09/11 06:45:13;;;;;;;7.90;6.90;;;;;;;15.21;100.00;155269.13;4995633;28;20440;-76
2022/09/11 06:47:40;;;;;;;9.43;8.50;;;;;;;15.24;100.00;155276.94;4994302;28;20483;-76
2022/09/11 06:50:08;;;;;;;7.93;7.00;;;;;;;15.22;100.00;155271.69;4994929;28;20879;-77
2022/09/11 06:52:56;;;;;;;8.10;7.13;;;;;;;15.24;100.00;155276.94;5003769;28;20440;-76
2022/09/11 06:55:26;;;;;;;9.83;8.83;;;;;;;15.26;100.00;155280.81;5013261;28;20530;-76
2022/09/11 06:58:01;;;;;;;8.40;7.07;;;;;;;15.29;100.00;155288.63;5034317;28;20470;-76
2022/09/11 07:00:30;;;;;;;8.33;7.53;;;;;;;15.31;100.00;155292.50;5022555;28;20922;-76
2022/09/11 07:02:57;;;;;;;8.93;7.07;;;;;;;15.32;100.00;155296.41;4991762;28;20485;-76
2022/09/11 07:05:25;;;;;;;8.20;7.40;;;;;;;15.37;100.00;155309.41;4993798;28;20538;-76
2022/09/11 07:07:54;;;;;;;7.70;7.00;;;;;;;15.39;100.00;155314.59;5012752;28;20468;-76
2022/09/11 07:10:21;;;;;;;9.97;7.50;;;;;;;15.47;100.00;155334.13;4997653;28;20949;-76
2022/09/11 07:12:54;;;;;;;7.93;7.13;;;;;;;15.52;100.00;155348.44;4997518;28;20451;-76
2022/09/11 07:15:22;;;;;;;7.80;7.10;;;;;;;15.58;100.00;155364.03;5023227;28;20550;-76
2022/09/11 07:17:49;;;;;;;7.97;7.20;;;;;;;15.60;100.00;155367.91;5002156;28;20497;-76
2022/09/11 07:20:17;;;;;;;10.20;7.37;;;;;;;15.65;100.00;155380.91;5014507;28;20490;-76
2022/09/11 07:22:44;;;;;;;8.93;7.50;;;;;;;15.67;100.00;155386.16;5014054;28;20460;-77
2022/09/11 07:25:11;;;;;;;8.20;7.40;;;;;;;15.70;100.00;155395.22;5013681;28;20487;-77
2022/09/11 07:27:41;;;;;;;9.00;8.00;;;;;;;15.74;100.00;155405.66;4997684;28;20509;-76
2022/09/11 07:30:11;;;;;;;8.50;7.70;;;;;;;15.76;100.00;155410.84;4997101;28;20439;-76
2022/09/11 07:32:40;;;;;;;8.03;7.33;;;;;;;15.81;100.00;155423.81;4996837;28;20455;-76
2022/09/11 07:35:08;;;;;;;8.50;7.70;;;;;;;15.78;100.00;155416.03;5011959;28;21040;-76
2022/09/11 07:37:34;;;;;;;8.40;7.47;;;;;;;15.81;100.00;155422.53;5017243;28;20505;-76
2022/09/11 07:40:02;;;;;;;8.60;6.90;;;;;;;15.80;100.00;155421.25;5017545;28;20540;-76
2022/09/11 07:42:29;;;;;;;8.00;7.30;;;;;;;15.83;100.00;155427.75;5033551;28;20486;-76
2022/09/11 07:44:57;;;;;;;8.70;7.77;;;;;;;15.89;100.00;155442.00;5026418;28;20458;-76
2022/09/11 07:47:25;;;;;;;8.37;7.57;;;;;;;15.85;100.00;155432.94;4996655;28;20455;-76
2022/09/11 07:49:54;;;;;;;7.50;6.80;;;;;;;15.92;100.00;155449.81;4997220;28;20872;-77
2022/09/11 07:52:20;;;;;;;9.23;8.33;;;;;;;15.97;100.00;155462.81;5013523;28;20502;-76
2022/09/11 07:54:54;;;;;;;9.20;8.30;;;;;;;15.98;100.00;155465.44;5033222;28;20914;-76
2022/09/11 07:57:24;;;;;;;8.53;7.63;;;;;;;15.96;100.00;155461.56;5033428;28;20577;-76
2022/09/11 07:59:52;;;;;;;7.17;6.47;;;;;;;15.97;100.00;155462.81;5017163;28;21024;-76
2022/09/11 08:02:19;;;;;;;7.87;7.17;;;;;;;15.98;100.00;155465.44;5033496;28;20464;-76
2022/09/11 08:04:46;;;;;;;8.20;7.20;;;;;;;15.97;100.00;155462.81;4994005;28;20558;-76
2022/09/11 08:07:15;;;;;;;8.60;7.80;;;;;;;15.94;100.00;155455.06;4995018;28;20467;-76
2022/09/11 08:09:42;;;;;;;7.60;6.90;;;;;;;15.92;100.00;155451.13;5029710;28;21049;-76
2022/09/11 08:12:10;;;;;;;9.40;8.50;;;;;;;15.94;100.00;155455.06;5018561;28;20524;-77
2022/09/11 08:14:38;;;;;;;8.10;7.00;;;;;;;15.96;100.00;155460.25;5017090;28;20438;-77
2022/09/11 08:17:17;;;;;;;7.87;7.17;;;;;;;15.99;100.00;155469.31;5016032;28;20816;-77
2022/09/11 08:19:44;;;;;;;8.23;7.30;;;;;;;16.00;100.00;155471.94;5016266;28;20438;-77
2022/09/11 08:22:12;;;;;;;8.30;7.50;;;;;;;16.01;100.00;155474.56;5029689;28;20543;-77
2022/09/11 08:24:44;;;;;;;9.30;7.90;;;;;;;16.06;100.00;155487.56;4996957;28;20480;-77
2022/09/11 08:27:13;;;;;;;8.00;7.30;;;;;;;16.12;100.00;155503.16;4996820;28;20451;-77
2022/09/11 08:29:42;;;;;;;7.80;7.07;;;;;;;16.18;100.00;155517.44;5013751;28;20534;-77
2022/09/11 08:32:09;;;;;;;8.13;7.33;;;;;;;16.29;100.00;155547.34;5031058;28;20514;-77
2022/09/11 08:34:37;;;;;;;8.00;7.30;;;;;;;16.41;100.00;155578.56;5009589;28;20853;-77
2022/09/11 08:37:04;;;;;;;9.50;8.50;;;;;;;16.54;100.00;155611.16;5012058;28;20558;-77
2022/09/11 08:39:33;;;;;;;9.10;7.87;;;;;;;16.67;100.00;155644.97;5010087;28;20448;-77
2022/09/11 08:42:07;;;;;;;11.30;7.70;;;;;;;16.93;100.00;155711.31;5018653;28;20554;-77
2022/09/11 08:44:40;;;;;;;8.47;7.40;;;;;;;17.31;100.00;155808.91;5029123;28;20449;-77
2022/09/11 08:47:21;;;;;;;8.80;7.90;;;;;;;17.66;100.00;155898.78;5036060;28;20442;-77
2022/09/11 08:49:55;;;;;;;8.20;7.40;;;;;;;18.16;100.00;156029.00;5006942;28;20448;-78
2022/09/11 08:52:23;;;;;;;7.97;7.20;;;;;;;18.51;100.00;156120.19;4988055;28;20506;-75
2022/09/11 08:54:53;;;;;;;7.53;6.83;;;;;;;18.58;98.11;156137.13;5014387;28;20448;-75
2022/09/11 08:57:27;;;;;;;8.53;7.73;;;;;;;18.29;94.73;156061.53;4996942;28;20485;-76
2022/09/11 09:00:05;;;;;;;8.20;7.40;;;;;;;18.20;95.00;156040.69;4998054;28;20447;-75
2022/09/11 09:02:50;;;;;;;7.33;6.63;;;;;;;17.96;94.05;155976.88;5014356;28;20462;-77
2022/09/11 09:05:28;;;;;;;7.60;6.90;;;;;;;17.84;96.29;155946.97;5012621;28;20444;-76
2022/09/11 09:08:05;;;;;;;7.90;7.20;;;;;;;17.54;98.36;155868.84;4979748;28;20440;-76
2022/09/11 09:10:41;;;;;;;7.30;6.60;;;;;;;17.54;97.17;155868.84;5005257;28;20808;-76
2022/09/11 09:13:21;;;;;;;7.90;7.13;;;;;;;17.66;96.89;155898.78;5035343;28;20438;-76
2022/09/11 09:15:54;;;;;;;7.60;6.83;;;;;;;17.84;94.79;155945.66;5025013;28;20935;-76
2022/09/11 09:18:27;;;;;;;7.07;6.33;;;;;;;17.98;94.06;155982.06;5011364;28;20939;-76
2022/09/11 09:21:00;;;;;;;6.80;6.10;;;;;;;18.11;94.19;156017.25;5033911;28;21169;-76
2022/09/11 09:23:31;;;;;;;7.00;6.40;;;;;;;18.20;94.30;156040.69;5015222;28;20891;-76
2022/09/11 09:25:57;;;;;;;8.03;6.13;;;;;;;18.21;95.54;156042.00;5019220;28;20979;-76
2022/09/11 09:28:31;;;;;;;7.40;6.70;;;;;;;18.25;91.44;156052.41;5014528;28;20435;-76
2022/09/11 09:31:02;;;;;;;7.00;6.40;;;;;;;18.36;91.60;156079.75;5016542;28;20806;-76
2022/09/11 09:33:34;;;;;;;7.50;6.80;;;;;;;18.48;87.46;156111.09;5001503;28;20443;-76
2022/09/11 09:36:13;;;;;;;6.77;6.17;;;;;;;18.55;87.56;156129.31;4996683;28;20459;-76
2022/09/11 09:38:43;;;;;;;6.93;6.27;;;;;;;18.36;86.25;156079.75;5014354;28;20492;-76
2022/09/11 09:41:33;;;;;;;6.37;5.77;;;;;;;18.54;85.29;156128.00;5029147;28;20645;-77
2022/09/11 09:44:04;;;;;;;6.03;5.47;;;;;;;18.58;86.48;156137.13;5029104;28;20882;-77
2022/09/11 09:46:40;;;;;;;5.97;5.47;;;;;;;18.68;86.50;156163.19;5032100;28;20506;-77
2022/09/11 09:49:08;;;;;;;5.60;5.07;;;;;;;18.63;86.26;156151.47;5031470;28;20431;-77
2022/09/11 09:51:35;;;;;;;5.77;5.27;;;;;;;18.60;84.77;156143.66;5013612;28;20775;-77
2022/09/11 09:54:08;;;;;;;5.50;5.00;;;;;;;18.64;88.57;156152.75;5026449;28;20449;-76
2022/09/11 09:56:36;;;;;;;6.17;5.67;;;;;;;18.68;86.35;156164.50;5021799;28;20806;-77
2022/09/11 09:59:14;;;;;;;6.50;5.90;;;;;;;18.72;86.11;156173.59;5011250;28;20460;-77
2022/09/11 10:01:47;;;;;;;6.50;5.90;;;;;;;18.73;84.48;156176.22;5012659;28;20424;-75
2022/09/11 10:04:16;;;;;;;7.27;6.67;;;;;;;18.80;84.64;156195.75;5020483;28;20801;-77
2022/09/11 10:06:47;;;;;;;6.80;6.13;;;;;;;18.72;88.60;156173.59;5028248;28;20441;-75
2022/09/11 10:09:25;;;;;;;6.87;6.27;;;;;;;18.56;83.89;156131.94;5013001;28;20818;-75
2022/09/11 10:12:01;;;;;;;7.53;6.80;;;;;;;18.55;84.63;156129.31;5012612;28;20432;-77
2022/09/11 10:14:34;;;;;;;7.17;6.57;;;;;;;18.59;93.57;156141.03;5019016;28;20458;-75
2022/09/11 10:17:02;;;;;;;8.40;6.53;;;;;;;18.62;84.35;156147.53;5030917;28;20485;-75
2022/09/11 10:19:40;;;;;;;6.50;5.90;;;;;;;18.72;85.87;156174.91;5032684;28;20443;-75
2022/09/11 10:22:30;;;;;;;6.67;5.80;;;;;;;18.83;83.92;156202.25;5033453;28;20756;-77
2022/09/11 10:25:08;;;;;;;7.10;6.50;;;;;;;18.83;83.10;156203.56;5014592;28;20833;-75
2022/09/11 10:27:39;;;;;;;6.73;6.13;;;;;;;18.72;80.39;156173.59;5032609;28;20411;-75
2022/09/11 10:30:24;;;;;;;6.10;5.50;;;;;;;18.80;83.37;156195.75;5033263;28;20434;-75
2022/09/11 10:32:50;;;;;;;6.57;5.97;;;;;;;18.85;79.97;156207.47;5011563;28;20468;-76
2022/09/11 10:35:20;;;;;;;8.70;6.37;;;;;;;18.82;83.19;156199.69;4983194;28;20486;-75
2022/09/11 10:38:23;;;;;;;7.37;6.67;;;;;;;18.76;86.39;156184.03;5033047;28;20464;-76
2022/09/11 10:40:56;;;;;;;7.43;6.73;;;;;;;18.85;87.46;156207.47;4997518;28;20461;-76
2022/09/11 10:43:25;;;;;;;7.10;6.47;;;;;;;18.89;82.32;156216.59;5055621;28;20455;-76
2022/09/11 10:46:05;;;;;;;6.70;6.10;;;;;;;18.75;90.02;156181.41;5032691;28;20424;-76
2022/09/11 10:48:32;;;;;;;7.57;6.87;;;;;;;18.80;84.03;156195.75;5033293;28;20448;-76
2022/09/11 10:51:10;;;;;;;7.80;7.00;;;;;;;18.86;82.55;156210.09;5028937;28;20448;-76
2022/09/11 10:53:46;;;;;;;7.70;7.00;;;;;;;18.85;80.04;156207.47;5014824;28;20814;-76
2022/09/11 10:56:17;;;;;;;7.67;6.70;;;;;;;18.76;82.52;156184.03;4998897;28;20475;-76
2022/09/11 10:58:46;;;;;;;7.93;7.17;;;;;;;18.66;83.31;156158.00;5005183;28;20539;-76
2022/09/11 11:01:14;;;;;;;8.80;6.70;;;;;;;18.73;85.07;156176.22;5010787;28;20440;-76
2022/09/11 11:03:41;;;;;;;8.10;7.30;;;;;;;18.73;83.45;156176.22;5030784;28;20443;-77
2022/09/11 11:06:18;;;;;;;8.93;7.67;;;;;;;18.85;83.01;156207.47;5013694;28;20432;-76
2022/09/11 11:09:05;;;;;;;8.97;8.07;;;;;;;18.64;81.23;156152.75;5012595;28;20768;-76
2022/09/11 11:11:48;;;;;;;8.27;7.43;;;;;;;18.55;81.24;156129.31;5028089;28;20444;-76
2022/09/11 11:14:33;;;;;;;9.30;7.10;;;;;;;18.71;82.52;156171.00;5031737;28;20754;-76
2022/09/11 11:17:08;;;;;;;7.40;6.70;;;;;;;18.89;80.15;156216.59;5014313;28;20545;-76
2022/09/11 11:19:53;;;;;;;8.07;6.63;;;;;;;19.08;86.61;156266.13;5031651;28;20482;-76
2022/09/11 11:22:30;;;;;;;6.20;5.60;;;;;;;19.16;82.07;156288.28;5043077;28;20447;-76
2022/09/11 11:25:06;;;;;;;6.83;6.23;;;;;;;19.18;78.98;156293.50;5033388;28;20487;-76
2022/09/11 11:27:43;;;;;;;8.13;7.30;;;;;;;19.34;76.57;156335.19;4998173;28;20514;-76
2022/09/11 11:30:13;;;;;;;7.00;6.40;;;;;;;19.15;81.58;156285.66;5019669;28;20486;-76
2022/09/11 11:33:01;;;;;;;7.67;6.77;;;;;;;19.12;77.04;156277.84;5011859;28;20480;-76
2022/09/11 11:35:30;;;;;;;7.60;6.80;;;;;;;19.05;79.63;156259.59;5012429;28;20460;-76